Terminal Aerodrome Forecast
Issued by NWS

Home | Current Version | Previous Version | Text Only | Print | Product List | Glossary On
Versions: 1 2 3 4 5 6 7 8 9 10 11 12 13 14 15 16 17 18 19
000
FTUS43 KABR 250618 AAA
TAFMBG
TAF AMD
KMBG 250618Z 2506/2606 14024G35KT P6SM VCTS SCT050CB BKN200
      WS015/15045KT
     FM250800 13016G24KT P6SM BKN200
     FM251400 25011KT P6SM SCT200
     FM252000 28015G24KT P6SM FEW250=

USA.gov is the U.S. government's official web portal to all federal, state and local government web resources and services.